sensor_id;sensor_type;location;lat;lon;timestamp;pressure;altitude;pressure_sealevel;temperature;humidity
30682;BME280;17439;48.092;11.842;2023-02-18T00:01:17;96252.69;;;14.12;53.99
30682;BME280;17439;48.092;11.842;2023-02-18T00:03:44;96258.44;;;14.10;54.04
30682;BME280;17439;48.092;11.842;2023-02-18T00:06:16;96241.88;;;13.98;53.88
30682;BME280;17439;48.092;11.842;2023-02-18T00:08:44;96250.66;;;13.95;54.29
30682;BME280;17439;48.092;11.842;2023-02-18T00:11:12;96255.16;;;13.91;54.53
30682;BME280;17439;48.092;11.842;2023-02-18T00:13:39;96252.06;;;13.84;54.57
30682;BME280;17439;48.092;11.842;2023-02-18T00:16:10;96251.69;;;13.76;54.79
30682;BME280;17439;48.092;11.842;2023-02-18T00:18:38;96243.84;;;13.75;54.86
30682;BME280;17439;48.092;11.842;2023-02-18T00:21:06;96243.34;;;13.73;55.10
30682;BME280;17439;48.092;11.842;2023-02-18T00:23:33;96235.50;;;13.71;55.33
30682;BME280;17439;48.092;11.842;2023-02-18T00:26:02;96241.88;;;13.67;55.43
30682;BME280;17439;48.092;11.842;2023-02-18T00:28:30;96232.09;;;13.66;55.41
30682;BME280;17439;48.092;11.842;2023-02-18T00:30:59;96229.97;;;13.63;55.50
30682;BME280;17439;48.092;11.842;2023-02-18T00:33:26;96222.13;;;13.61;55.45
30682;BME280;17439;48.092;11.842;2023-02-18T00:36:00;96232.66;;;13.54;55.88
30682;BME280;17439;48.092;11.842;2023-02-18T00:38:27;96223.97;;;13.52;55.88
30682;BME280;17439;48.092;11.842;2023-02-18T00:40:53;96230.34;;;13.47;55.93
30682;BME280;17439;48.092;11.842;2023-02-18T00:43:20;96226.66;;;13.43;56.28
30682;BME280;17439;48.092;11.842;2023-02-18T00:45:46;96234.66;;;13.39;56.37
30682;BME280;17439;48.092;11.842;2023-02-18T00:48:13;96228.69;;;13.37;56.48
30682;BME280;17439;48.092;11.842;2023-02-18T00:50:40;96232.03;;;13.34;56.65
30682;BME280;17439;48.092;11.842;2023-02-18T00:53:07;96229.88;;;13.31;56.59
30682;BME280;17439;48.092;11.842;2023-02-18T00:55:41;96229.72;;;13.28;56.63
30682;BME280;17439;48.092;11.842;2023-02-18T00:58:09;96230.63;;;13.23;56.95
30682;BME280;17439;48.092;11.842;2023-02-18T01:00:36;96232.56;;;13.22;56.92
30682;BME280;17439;48.092;11.842;2023-02-18T01:03:04;96224.41;;;13.22;56.99
30682;BME280;17439;48.092;11.842;2023-02-18T01:05:31;96229.34;;;13.20;57.01
30682;BME280;17439;48.092;11.842;2023-02-18T01:07:58;96227.72;;;13.19;57.01
30682;BME280;17439;48.092;11.842;2023-02-18T01:10:25;96228.66;;;13.15;57.05
30682;BME280;17439;48.092;11.842;2023-02-18T01:12:51;96221.72;;;13.09;57.38
30682;BME280;17439;48.092;11.842;2023-02-18T01:15:18;96221.72;;;13.09;57.45
30682;BME280;17439;48.092;11.842;2023-02-18T01:17:45;96222.31;;;13.05;57.64
30682;BME280;17439;48.092;11.842;2023-02-18T01:20:12;96216.09;;;13.05;57.83
30682;BME280;17439;48.092;11.842;2023-02-18T01:22:39;96217.75;;;12.92;58.17
30682;BME280;17439;48.092;11.842;2023-02-18T01:25:07;96226.28;;;12.99;58.25
30682;BME280;17439;48.092;11.842;2023-02-18T01:27:35;96221.34;;;13.01;58.25
30682;BME280;17439;48.092;11.842;2023-02-18T01:30:07;96218.13;;;12.99;58.65
30682;BME280;17439;48.092;11.842;2023-02-18T01:32:34;96222.94;;;13.02;58.55
30682;BME280;17439;48.092;11.842;2023-02-18T01:35:02;96214.78;;;13.02;58.76
30682;BME280;17439;48.092;11.842;2023-02-18T01:37:29;96218.81;;;13.05;58.89
30682;BME280;17439;48.092;11.842;2023-02-18T01:39:55;96226.19;;;13.04;58.92
30682;BME280;17439;48.092;11.842;2023-02-18T01:42:25;96213.06;;;13.06;58.79
30682;BME280;17439;48.092;11.842;2023-02-18T01:44:52;96226.19;;;13.04;58.98
30682;BME280;17439;48.092;11.842;2023-02-18T01:47:20;96213.38;;;13.05;58.98
30682;BME280;17439;48.092;11.842;2023-02-18T01:49:50;96209.53;;;13.06;59.05
30682;BME280;17439;48.092;11.842;2023-02-18T01:52:22;96215.00;;;13.06;59.00
30682;BME280;17439;48.092;11.842;2023-02-18T01:54:53;96216.88;;;13.05;58.99
30682;BME280;17439;48.092;11.842;2023-02-18T01:57:30;96217.72;;;13.06;58.94
30682;BME280;17439;48.092;11.842;2023-02-18T02:00:12;96208.22;;;13.03;58.89
30682;BME280;17439;48.092;11.842;2023-02-18T02:02:44;96209.84;;;13.04;58.96
30682;BME280;17439;48.092;11.842;2023-02-18T02:05:11;96205.50;;;13.03;59.21
30682;BME280;17439;48.092;11.842;2023-02-18T02:07:40;96198.75;;;13.01;59.35
30682;BME280;17439;48.092;11.842;2023-02-18T02:10:12;96206.91;;;13.01;59.42
30682;BME280;17439;48.092;11.842;2023-02-18T02:13:06;96195.53;;;12.99;59.47
30682;BME280;17439;48.092;11.842;2023-02-18T02:15:43;96191.91;;;13.03;59.72
30682;BME280;17439;48.092;11.842;2023-02-18T02:21:06;96183.13;;;13.06;59.53
30682;BME280;17439;48.092;11.842;2023-02-18T02:27:20;96186.81;;;13.11;59.49
30682;BME280;17439;48.092;11.842;2023-02-18T02:36:12;96180.88;;;13.09;59.13
30682;BME280;17439;48.092;11.842;2023-02-18T02:38:55;96184.00;;;13.16;59.25
30682;BME280;17439;48.092;11.842;2023-02-18T02:41:45;96190.22;;;13.16;59.28
30682;BME280;17439;48.092;11.842;2023-02-18T02:46:45;96181.94;;;13.21;59.49
30682;BME280;17439;48.092;11.842;2023-02-18T02:52:13;96176.19;;;13.23;59.39
30682;BME280;17439;48.092;11.842;2023-02-18T02:54:42;96172.84;;;13.26;59.76
30682;BME280;17439;48.092;11.842;2023-02-18T03:00:01;96163.75;;;13.31;59.38
30682;BME280;17439;48.092;11.842;2023-02-18T03:13:32;96163.94;;;13.34;59.91
30682;BME280;17439;48.092;11.842;2023-02-18T03:16:13;96152.75;;;13.36;59.99
30682;BME280;17439;48.092;11.842;2023-02-18T03:19:08;96163.63;;;13.36;59.77
30682;BME280;17439;48.092;11.842;2023-02-18T03:21:45;96158.72;;;13.38;60.08
30682;BME280;17439;48.092;11.842;2023-02-18T03:24:16;96154.53;;;13.40;60.16
30682;BME280;17439;48.092;11.842;2023-02-18T03:26:51;96154.53;;;13.40;60.02
30682;BME280;17439;48.092;11.842;2023-02-18T03:29:21;96156.16;;;13.41;60.10
30682;BME280;17439;48.092;11.842;2023-02-18T03:31:53;96162.69;;;13.40;60.02
30682;BME280;17439;48.092;11.842;2023-02-18T03:34:27;96161.59;;;13.41;59.98
30682;BME280;17439;48.092;11.842;2023-02-18T03:36:55;96161.13;;;13.39;60.24
30682;BME280;17439;48.092;11.842;2023-02-18T03:39:25;96166.56;;;13.39;60.24
30682;BME280;17439;48.092;11.842;2023-02-18T03:41:53;96158.09;;;13.41;60.26
30682;BME280;17439;48.092;11.842;2023-02-18T03:44:19;96160.47;;;13.42;60.17
30682;BME280;17439;48.092;11.842;2023-02-18T03:46:46;96151.97;;;13.44;60.26
30682;BME280;17439;48.092;11.842;2023-02-18T03:49:14;96151.97;;;13.44;60.09
30682;BME280;17439;48.092;11.842;2023-02-18T03:51:41;96144.13;;;13.42;60.25
30682;BME280;17439;48.092;11.842;2023-02-18T03:54:08;96159.38;;;13.43;60.27
30682;BME280;17439;48.092;11.842;2023-02-18T03:56:35;96150.88;;;13.45;60.11
30682;BME280;17439;48.092;11.842;2023-02-18T03:59:02;96145.13;;;13.47;60.10
30682;BME280;17439;48.092;11.842;2023-02-18T04:01:29;96137.72;;;13.38;60.24
30682;BME280;17439;48.092;11.842;2023-02-18T04:03:56;96144.47;;;13.41;60.25
30682;BME280;17439;48.092;11.842;2023-02-18T04:06:23;96149.25;;;13.44;60.18
30682;BME280;17439;48.092;11.842;2023-02-18T04:08:50;96133.22;;;13.42;60.13
30682;BME280;17439;48.092;11.842;2023-02-18T04:11:17;96155.03;;;13.42;60.19
30682;BME280;17439;48.092;11.842;2023-02-18T04:13:43;96146.38;;;13.40;59.97
30682;BME280;17439;48.092;11.842;2023-02-18T04:16:10;96158.56;;;13.43;60.15
30682;BME280;17439;48.092;11.842;2023-02-18T04:18:36;96152.81;;;13.45;60.12
30682;BME280;17439;48.092;11.842;2023-02-18T04:21:03;96172.34;;;13.47;60.11
30682;BME280;17439;48.092;11.842;2023-02-18T04:23:30;96152.50;;;13.46;60.29
30682;BME280;17439;48.092;11.842;2023-02-18T04:25:56;96155.22;;;13.46;60.22
30682;BME280;17439;48.092;11.842;2023-02-18T04:28:23;96155.22;;;13.46;60.33
30682;BME280;17439;48.092;11.842;2023-02-18T04:30:49;96153.28;;;13.47;60.22
30682;BME280;17439;48.092;11.842;2023-02-18T04:33:16;96162.25;;;13.47;60.23
30682;BME280;17439;48.092;11.842;2023-02-18T04:35:42;96158.44;;;13.48;60.37
30682;BME280;17439;48.092;11.842;2023-02-18T04:38:10;96160.03;;;13.49;60.06
30682;BME280;17439;48.092;11.842;2023-02-18T04:40:37;96163.09;;;13.48;60.11
30682;BME280;17439;48.092;11.842;2023-02-18T04:43:03;96163.88;;;13.48;60.15
30682;BME280;17439;48.092;11.842;2023-02-18T04:45:30;96175.56;;;13.49;60.06
30682;BME280;17439;48.092;11.842;2023-02-18T04:47:57;96165.50;;;13.49;60.03
30682;BME280;17439;48.092;11.842;2023-02-18T04:50:23;96147.97;;;13.41;60.06
30682;BME280;17439;48.092;11.842;2023-02-18T04:52:50;96164.81;;;13.43;60.07
30682;BME280;17439;48.092;11.842;2023-02-18T04:55:16;96164.63;;;13.40;59.89
30682;BME280;17439;48.092;11.842;2023-02-18T04:57:43;96163.53;;;13.41;60.04
30682;BME280;17439;48.092;11.842;2023-02-18T05:00:14;96169.59;;;13.38;59.87
30682;BME280;17439;48.092;11.842;2023-02-18T05:02:42;96178.25;;;13.40;60.13
30682;BME280;17439;48.092;11.842;2023-02-18T05:05:09;96180.19;;;13.39;59.83
30682;BME280;17439;48.092;11.842;2023-02-18T05:07:35;96182.91;;;13.39;59.86
30682;BME280;17439;48.092;11.842;2023-02-18T05:10:03;96172.00;;;13.39;59.81
30682;BME280;17439;48.092;11.842;2023-02-18T05:12:30;96167.81;;;13.33;59.89
30682;BME280;17439;48.092;11.842;2023-02-18T05:14:56;96175.16;;;13.33;59.92
30682;BME280;17439;48.092;11.842;2023-02-18T05:17:23;96162.13;;;13.30;59.91
30682;BME280;17439;48.092;11.842;2023-02-18T05:19:49;96160.44;;;13.34;59.89
30682;BME280;17439;48.092;11.842;2023-02-18T05:22:16;96152.84;;;13.31;59.85
30682;BME280;17439;48.092;11.842;2023-02-18T05:24:43;96156.38;;;13.31;59.69
30682;BME280;17439;48.092;11.842;2023-02-18T05:27:09;96153.94;;;13.30;59.90
30682;BME280;17439;48.092;11.842;2023-02-18T05:29:36;96166.47;;;13.31;59.84
30682;BME280;17439;48.092;11.842;2023-02-18T05:32:02;96173.00;;;13.30;59.75
30682;BME280;17439;48.092;11.842;2023-02-18T05:34:29;96167.81;;;13.33;59.37
30682;BME280;17439;48.092;11.842;2023-02-18T05:36:56;96153.06;;;13.34;59.52
30682;BME280;17439;48.092;11.842;2023-02-18T05:39:22;96160.44;;;13.34;59.46
30682;BME280;17439;48.092;11.842;2023-02-18T05:41:49;96151.47;;;13.33;59.43
30682;BME280;17439;48.092;11.842;2023-02-18T05:44:15;96150.63;;;13.33;59.33
30682;BME280;17439;48.092;11.842;2023-02-18T05:46:42;96150.34;;;13.34;59.28
30682;BME280;17439;48.092;11.842;2023-02-18T05:49:10;96153.66;;;13.31;59.24
30682;BME280;17439;48.092;11.842;2023-02-18T05:51:37;96156.38;;;13.31;59.26
30682;BME280;17439;48.092;11.842;2023-02-18T05:54:04;96159.41;;;13.30;59.50
30682;BME280;17439;48.092;11.842;2023-02-18T05:56:30;96150.44;;;13.29;59.41
30682;BME280;17439;48.092;11.842;2023-02-18T05:58:57;96161.34;;;13.29;59.35
30682;BME280;17439;48.092;11.842;2023-02-18T06:01:24;96148.75;;;13.33;59.35
30682;BME280;17439;48.092;11.842;2023-02-18T06:03:50;96162.13;;;13.30;59.29
30682;BME280;17439;48.092;11.842;2023-02-18T06:06:17;96150.75;;;13.28;59.01
30682;BME280;17439;48.092;11.842;2023-02-18T06:08:44;96164.25;;;13.33;59.00
30682;BME280;17439;48.092;11.842;2023-02-18T06:11:10;96165.38;;;13.32;59.12
30682;BME280;17439;48.092;11.842;2023-02-18T06:13:37;96159.72;;;13.28;59.35
30682;BME280;17439;48.092;11.842;2023-02-18T06:16:03;96162.34;;;13.33;59.20
30682;BME280;17439;48.092;11.842;2023-02-18T06:18:30;96164.25;;;13.33;59.12
30682;BME280;17439;48.092;11.842;2023-02-18T06:20:57;96157.50;;;13.30;59.04
30682;BME280;17439;48.092;11.842;2023-02-18T06:23:23;96155.25;;;13.32;59.15
30682;BME280;17439;48.092;11.842;2023-02-18T06:25:50;96165.09;;;13.33;59.15
30682;BME280;17439;48.092;11.842;2023-02-18T06:28:17;96167.81;;;13.33;59.14
30682;BME280;17439;48.092;11.842;2023-02-18T06:30:44;96164.47;;;13.36;59.08
30682;BME280;17439;48.092;11.842;2023-02-18T06:33:11;96162.84;;;13.35;59.16
30682;BME280;17439;48.092;11.842;2023-02-18T06:35:38;96171.50;;;13.37;59.06
30682;BME280;17439;48.092;11.842;2023-02-18T06:38:04;96167.66;;;13.38;59.00
30682;BME280;17439;48.092;11.842;2023-02-18T06:40:31;96174.72;;;13.39;59.04
30682;BME280;17439;48.092;11.842;2023-02-18T06:42:57;96166.47;;;13.31;58.96
30682;BME280;17439;48.092;11.842;2023-02-18T06:45:24;96174.84;;;13.34;58.92
30682;BME280;17439;48.092;11.842;2023-02-18T06:47:51;96163.94;;;13.34;59.05
30682;BME280;17439;48.092;11.842;2023-02-18T06:50:17;96165.09;;;13.33;58.91
30682;BME280;17439;48.092;11.842;2023-02-18T06:52:44;96179.19;;;13.35;58.77
30682;BME280;17439;48.092;11.842;2023-02-18T06:55:11;96175.34;;;13.36;58.69
30682;BME280;17439;48.092;11.842;2023-02-18T06:57:38;96164.66;;;13.26;57.70
30682;BME280;17439;48.092;11.842;2023-02-18T07:00:05;96171.81;;;13.36;57.82
30682;BME280;17439;48.092;11.842;2023-02-18T07:02:31;96175.03;;;13.38;57.70
30682;BME280;17439;48.092;11.842;2023-02-18T07:04:58;96172.50;;;13.41;58.03
30682;BME280;17439;48.092;11.842;2023-02-18T07:07:25;96171.56;;;13.46;57.88
30682;BME280;17439;48.092;11.842;2023-02-18T07:09:51;96169.63;;;13.47;58.12
30682;BME280;17439;48.092;11.842;2023-02-18T07:12:18;96166.28;;;13.50;58.10
30682;BME280;17439;48.092;11.842;2023-02-18T07:14:44;96177.66;;;13.52;58.06
30682;BME280;17439;48.092;11.842;2023-02-18T07:17:11;96164.41;;;13.59;57.78
30682;BME280;17439;48.092;11.842;2023-02-18T07:19:38;96169.69;;;13.55;57.48
30682;BME280;17439;48.092;11.842;2023-02-18T07:22:04;96170.03;;;13.63;57.01
30682;BME280;17439;48.092;11.842;2023-02-18T07:24:31;96167.31;;;13.63;57.01
30682;BME280;17439;48.092;11.842;2023-02-18T07:26:57;96176.72;;;13.56;56.13
30682;BME280;17439;48.092;11.842;2023-02-18T07:29:24;96165.75;;;13.70;55.64
30682;BME280;17439;48.092;11.842;2023-02-18T07:31:51;96162.25;;;13.70;55.43
30682;BME280;17439;48.092;11.842;2023-02-18T07:34:17;96160.13;;;13.67;55.48
30682;BME280;17439;48.092;11.842;2023-02-18T07:36:44;96165.75;;;13.70;55.50
30682;BME280;17439;48.092;11.842;2023-02-18T07:39:11;96151.66;;;13.68;54.93
30682;BME280;17439;48.092;11.842;2023-02-18T07:41:37;96177.31;;;13.76;55.09
30682;BME280;17439;48.092;11.842;2023-02-18T07:44:13;96169.66;;;13.78;54.86
30682;BME280;17439;48.092;11.842;2023-02-18T07:46:40;96162.25;;;13.70;55.15
30682;BME280;17439;48.092;11.842;2023-02-18T07:49:08;96142.56;;;13.82;54.69
30682;BME280;17439;48.092;11.842;2023-02-18T07:51:34;96165.16;;;13.82;54.74
30682;BME280;17439;48.092;11.842;2023-02-18T07:54:01;96157.81;;;13.83;54.86
30682;BME280;17439;48.092;11.842;2023-02-18T07:56:28;96171.13;;;13.84;54.85
30682;BME280;17439;48.092;11.842;2023-02-18T07:58:54;96175.66;;;13.97;54.64
30682;BME280;17439;48.092;11.842;2023-02-18T08:01:21;96154.47;;;13.94;54.49
30682;BME280;17439;48.092;11.842;2023-02-18T08:03:48;96151.25;;;13.92;54.32
30682;BME280;17439;48.092;11.842;2023-02-18T08:06:21;96154.78;;;13.93;54.56
30682;BME280;17439;48.092;11.842;2023-02-18T08:08:50;96148.84;;;13.91;54.85
30682;BME280;17439;48.092;11.842;2023-02-18T08:11:17;96137.94;;;13.91;54.94
30682;BME280;17439;48.092;11.842;2023-02-18T08:13:46;96139.38;;;13.88;55.09
30682;BME280;17439;48.092;11.842;2023-02-18T08:16:14;96153.19;;;13.92;54.79
30682;BME280;17439;48.092;11.842;2023-02-18T08:18:41;96162.78;;;13.89;54.89
30682;BME280;17439;48.092;11.842;2023-02-18T08:21:08;96128.00;;;13.95;54.87
30682;BME280;17439;48.092;11.842;2023-02-18T08:23:34;96137.31;;;13.94;55.44
30682;BME280;17439;48.092;11.842;2023-02-18T08:26:01;96140.84;;;13.94;55.11
30682;BME280;17439;48.092;11.842;2023-02-18T08:28:28;96116.78;;;13.96;54.78
30682;BME280;17439;48.092;11.842;2023-02-18T08:30:54;96124.97;;;13.96;54.63
30682;BME280;17439;48.092;11.842;2023-02-18T08:33:22;96120.97;;;13.94;55.23
30682;BME280;17439;48.092;11.842;2023-02-18T08:35:50;96128.66;;;13.92;55.46
30682;BME280;17439;48.092;11.842;2023-02-18T08:38:18;96137.31;;;13.94;55.22
30682;BME280;17439;48.092;11.842;2023-02-18T08:40:45;96155.09;;;13.91;55.09
30682;BME280;17439;48.092;11.842;2023-02-18T08:43:12;96112.63;;;13.99;54.88
30682;BME280;17439;48.092;11.842;2023-02-18T08:45:40;96126.09;;;13.95;55.52
30682;BME280;17439;48.092;11.842;2023-02-18T08:48:08;96116.94;;;13.91;55.30
30682;BME280;17439;48.092;11.842;2023-02-18T08:50:46;96110.22;;;13.97;55.42
30682;BME280;17439;48.092;11.842;2023-02-18T08:53:13;96097.91;;;14.00;55.69
30682;BME280;17439;48.092;11.842;2023-02-18T08:55:40;96101.91;;;14.03;55.52
30682;BME280;17439;48.092;11.842;2023-02-18T08:58:07;96101.59;;;14.04;55.75
30682;BME280;17439;48.092;11.842;2023-02-18T09:00:35;96107.69;;;14.10;55.61
30682;BME280;17439;48.092;11.842;2023-02-18T09:03:02;96115.09;;;14.18;55.60
30682;BME280;17439;48.092;11.842;2023-02-18T09:05:28;96109.78;;;14.22;55.46
30682;BME280;17439;48.092;11.842;2023-02-18T09:07:55;96113.19;;;14.27;54.44
30682;BME280;17439;48.092;11.842;2023-02-18T09:10:23;96111.25;;;14.28;55.05
30682;BME280;17439;48.092;11.842;2023-02-18T09:12:49;96120.41;;;14.41;53.94
30682;BME280;17439;48.092;11.842;2023-02-18T09:15:16;96117.53;;;14.46;53.79
30682;BME280;17439;48.092;11.842;2023-02-18T09:17:43;96096.38;;;14.51;53.65
30682;BME280;17439;48.092;11.842;2023-02-18T09:20:09;96094.09;;;14.54;53.70
30682;BME280;17439;48.092;11.842;2023-02-18T09:22:36;96089.63;;;14.58;53.17
30682;BME280;17439;48.092;11.842;2023-02-18T09:25:03;96088.69;;;14.62;53.00
30682;BME280;17439;48.092;11.842;2023-02-18T09:27:30;96097.69;;;14.63;53.04
30682;BME280;17439;48.092;11.842;2023-02-18T09:29:57;96098.16;;;14.74;52.28
30682;BME280;17439;48.092;11.842;2023-02-18T09:32:23;96091.59;;;14.75;52.63
30682;BME280;17439;48.092;11.842;2023-02-18T09:35:01;96090.44;;;14.76;52.79
30682;BME280;17439;48.092;11.842;2023-02-18T09:37:28;96094.00;;;14.76;53.35
30682;BME280;17439;48.092;11.842;2023-02-18T09:39:54;96086.75;;;14.80;53.67
30682;BME280;17439;48.092;11.842;2023-02-18T09:42:28;96094.78;;;14.85;52.47
30682;BME280;17439;48.092;11.842;2023-02-18T09:44:59;96093.16;;;14.93;51.94
30682;BME280;17439;48.092;11.842;2023-02-18T09:47:40;96078.53;;;14.98;52.63
30682;BME280;17439;48.092;11.842;2023-02-18T09:50:20;96074.06;;;15.02;52.77
30682;BME280;17439;48.092;11.842;2023-02-18T09:52:47;96068.41;;;15.07;52.44
30682;BME280;17439;48.092;11.842;2023-02-18T09:57:55;96046.72;;;15.11;51.60
30682;BME280;17439;48.092;11.842;2023-02-18T10:00:40;96042.06;;;15.11;52.52
30682;BME280;17439;48.092;11.842;2023-02-18T10:03:12;96050.09;;;15.16;52.20
30682;BME280;17439;48.092;11.842;2023-02-18T10:05:50;96031.28;;;15.15;51.51
30682;BME280;17439;48.092;11.842;2023-02-18T10:08:25;96035.78;;;15.11;50.70
30682;BME280;17439;48.092;11.842;2023-02-18T10:10:52;96028.69;;;15.27;51.59
30682;BME280;17439;48.092;11.842;2023-02-18T10:13:25;96023.38;;;15.31;51.08
30682;BME280;17439;48.092;11.842;2023-02-18T10:15:53;96022.84;;;15.37;51.82
30682;BME280;17439;48.092;11.842;2023-02-18T10:18:28;96013.53;;;15.38;51.77
30682;BME280;17439;48.092;11.842;2023-02-18T10:21:21;96018.03;;;15.43;52.14
30682;BME280;17439;48.092;11.842;2023-02-18T10:24:19;96006.25;;;15.51;51.36
30682;BME280;17439;48.092;11.842;2023-02-18T10:26:47;95990.63;;;15.60;52.33
30682;BME280;17439;48.092;11.842;2023-02-18T10:29:17;96003.88;;;15.71;51.24
30682;BME280;17439;48.092;11.842;2023-02-18T10:34:46;96009.03;;;15.72;50.98
30682;BME280;17439;48.092;11.842;2023-02-18T10:37:53;95987.03;;;15.69;49.10
30682;BME280;17439;48.092;11.842;2023-02-18T10:43:20;95990.88;;;15.68;49.79
30682;BME280;17439;48.092;11.842;2023-02-18T10:45:58;95976.44;;;15.67;49.95
30682;BME280;17439;48.092;11.842;2023-02-18T10:51:03;95966.16;;;15.64;49.97
30682;BME280;17439;48.092;11.842;2023-02-18T10:53:38;95962.22;;;15.53;49.21
30682;BME280;17439;48.092;11.842;2023-02-18T10:56:06;95972.28;;;15.61;50.38
30682;BME280;17439;48.092;11.842;2023-02-18T10:58:43;95957.97;;;15.64;50.49
30682;BME280;17439;48.092;11.842;2023-02-18T11:01:20;95942.22;;;15.61;48.98
30682;BME280;17439;48.092;11.842;2023-02-18T11:03:50;95945.09;;;15.65;49.78
30682;BME280;17439;48.092;11.842;2023-02-18T11:06:30;95928.31;;;15.75;50.15
30682;BME280;17439;48.092;11.842;2023-02-18T11:08:58;95926.31;;;15.84;49.88
30682;BME280;17439;48.092;11.842;2023-02-18T11:11:33;95913.50;;;15.76;48.91
30682;BME280;17439;48.092;11.842;2023-02-18T11:14:05;95899.06;;;15.96;49.50
30682;BME280;17439;48.092;11.842;2023-02-18T11:16:44;95908.44;;;16.08;48.17
30682;BME280;17439;48.092;11.842;2023-02-18T11:22:18;95902.16;;;16.28;48.22
30682;BME280;17439;48.092;11.842;2023-02-18T11:24:46;95890.25;;;16.45;47.75
30682;BME280;17439;48.092;11.842;2023-02-18T11:27:41;95888.66;;;16.57;47.08
30682;BME280;17439;48.092;11.842;2023-02-18T11:30:53;95878.88;;;16.68;47.29
30682;BME280;17439;48.092;11.842;2023-02-18T11:32:57;95899.19;;;16.79;45.83
30682;BME280;17439;48.092;11.842;2023-02-18T11:35:27;95885.91;;;16.90;46.01
30682;BME280;17439;48.092;11.842;2023-02-18T11:37:56;95884.97;;;16.86;46.25
30682;BME280;17439;48.092;11.842;2023-02-18T11:40:29;95886.94;;;16.98;47.09
30682;BME280;17439;48.092;11.842;2023-02-18T11:43:03;95880.53;;;17.06;46.14
30682;BME280;17439;48.092;11.842;2023-02-18T11:45:32;95864.00;;;17.15;46.68
30682;BME280;17439;48.092;11.842;2023-02-18T11:48:01;95868.78;;;17.18;45.04
30682;BME280;17439;48.092;11.842;2023-02-18T11:50:32;95866.28;;;17.37;46.14
30682;BME280;17439;48.092;11.842;2023-02-18T11:52:59;95869.56;;;17.43;45.87
30682;BME280;17439;48.092;11.842;2023-02-18T11:55:28;95854.47;;;17.49;45.15
30682;BME280;17439;48.092;11.842;2023-02-18T11:57:56;95873.66;;;17.49;45.27
30682;BME280;17439;48.092;11.842;2023-02-18T12:00:43;95847.03;;;17.50;44.30
30682;BME280;17439;48.092;11.842;2023-02-18T12:03:24;95846.47;;;17.56;45.42
30682;BME280;17439;48.092;11.842;2023-02-18T12:05:56;95853.88;;;17.56;45.14
30682;BME280;17439;48.092;11.842;2023-02-18T12:08:30;95832.09;;;17.59;45.92
30682;BME280;17439;48.092;11.842;2023-02-18T12:11:06;95809.59;;;17.54;43.85
30682;BME280;17439;48.092;11.842;2023-02-18T12:13:41;95817.78;;;17.66;44.49
30682;BME280;17439;48.092;11.842;2023-02-18T12:19:34;95818.91;;;17.65;43.87
30682;BME280;17439;48.092;11.842;2023-02-18T12:28:05;95798.28;;;17.55;43.21
30682;BME280;17439;48.092;11.842;2023-02-18T12:30:43;95792.44;;;17.57;42.69
30682;BME280;17439;48.092;11.842;2023-02-18T12:47:31;95776.94;;;17.49;41.83
30682;BME280;17439;48.092;11.842;2023-02-18T12:53:38;95771.13;;;17.50;42.86
30682;BME280;17439;48.092;11.842;2023-02-18T12:56:19;95773.53;;;17.52;42.85
30682;BME280;17439;48.092;11.842;2023-02-18T12:59:32;95768.97;;;17.44;42.26
30682;BME280;17439;48.092;11.842;2023-02-18T13:02:43;95769.88;;;17.48;42.96
30682;BME280;17439;48.092;11.842;2023-02-18T13:05:30;95765.53;;;17.47;42.26
30682;BME280;17439;48.092;11.842;2023-02-18T13:14:09;95777.84;;;17.53;43.67
30682;BME280;17439;48.092;11.842;2023-02-18T13:16:40;95770.88;;;17.55;43.10
30682;BME280;17439;48.092;11.842;2023-02-18T13:19:25;95764.59;;;17.55;43.47
30682;BME280;17439;48.092;11.842;2023-02-18T13:21:55;95760.06;;;17.47;42.55
30682;BME280;17439;48.092;11.842;2023-02-18T13:24:32;95770.56;;;17.45;42.38
30682;BME280;17439;48.092;11.842;2023-02-18T13:36:33;95767.38;;;17.43;42.46
30682;BME280;17439;48.092;11.842;2023-02-18T13:38:52;95743.97;;;17.45;43.37
30682;BME280;17439;48.092;11.842;2023-02-18T13:41:20;95751.84;;;17.47;43.40
30682;BME280;17439;48.092;11.842;2023-02-18T13:43:47;95756.97;;;17.48;43.02
30682;BME280;17439;48.092;11.842;2023-02-18T13:46:22;95761.63;;;17.48;43.38
30682;BME280;17439;48.092;11.842;2023-02-18T13:48:52;95748.75;;;17.48;43.32
30682;BME280;17439;48.092;11.842;2023-02-18T13:51:33;95754.38;;;17.39;43.58
30682;BME280;17439;48.092;11.842;2023-02-18T13:54:17;95764.75;;;17.34;43.28
30682;BME280;17439;48.092;11.842;2023-02-18T13:56:52;95772.63;;;17.35;42.94
30682;BME280;17439;48.092;11.842;2023-02-18T13:59:37;95768.84;;;17.40;43.61
30682;BME280;17439;48.092;11.842;2023-02-18T14:07:37;95771.66;;;17.15;43.79
30682;BME280;17439;48.092;11.842;2023-02-18T14:26:08;95749.56;;;16.96;44.72
30682;BME280;17439;48.092;11.842;2023-02-18T14:28:39;95765.19;;;16.95;44.54
30682;BME280;17439;48.092;11.842;2023-02-18T14:39:07;95774.28;;;16.75;44.62
30682;BME280;17439;48.092;11.842;2023-02-18T14:44:35;95787.41;;;16.57;44.29
30682;BME280;17439;48.092;11.842;2023-02-18T14:49:41;95784.44;;;16.62;43.96
30682;BME280;17439;48.092;11.842;2023-02-18T14:52:22;95775.78;;;16.60;43.80
30682;BME280;17439;48.092;11.842;2023-02-18T14:54:54;95775.53;;;16.53;44.61
30682;BME280;17439;48.092;11.842;2023-02-18T14:57:33;95780.00;;;16.45;44.41
30682;BME280;17439;48.092;11.842;2023-02-18T15:00:03;95781.91;;;16.44;44.90
30682;BME280;17439;48.092;11.842;2023-02-18T15:02:35;95780.53;;;16.38;44.42
30682;BME280;17439;48.092;11.842;2023-02-18T15:05:17;95775.06;;;16.38;45.26
30682;BME280;17439;48.092;11.842;2023-02-18T15:08:14;95768.94;;;16.29;45.06
30682;BME280;17439;48.092;11.842;2023-02-18T15:10:45;95777.47;;;16.27;45.29